Time;durP1;ratioP1;P1;durP2;ratioP2;P2;SDS_P1;SDS_P2;PMS_P1;PMS_P2;Temp;Humidity;BMP_temperature;BMP_pressure;BME280_temperature;BME280_humidity;BME280_pressure;Samples;Min_cycle;Max_cycle;Signal;HPM_P1;HPM_P2
2022/04/26 03:36:43;;;;;;;16.57;12.33;;;11.60;99.90;;;;;;5029885;28;20492;-74
2022/04/26 03:39:09;;;;;;;15.03;12.37;;;11.80;99.90;;;;;;5030432;28;20435;-74
2022/04/26 03:41:35;;;;;;;14.80;12.80;;;12.10;99.90;;;;;;5033831;28;20211;-73
2022/04/26 03:44:00;;;;;;;14.37;12.13;;;11.80;99.90;;;;;;5031969;28;20204;-73
2022/04/26 03:46:26;;;;;;;15.70;12.50;;;11.90;99.90;;;;;;5045603;28;20434;-71
2022/04/26 03:48:52;;;;;;;12.47;11.17;;;12.20;99.90;;;;;;5035699;28;20266;-72
2022/04/26 03:51:18;;;;;;;14.63;11.47;;;12.20;99.90;;;;;;5030301;28;20447;-72
2022/04/26 03:53:46;;;;;;;15.10;11.70;;;12.10;99.90;;;;;;5035775;28;20431;-72
2022/04/26 03:56:12;;;;;;;12.60;10.80;;;12.20;99.90;;;;;;5031574;28;20752;-74
2022/04/26 03:58:37;;;;;;;13.43;11.40;;;12.10;99.90;;;;;;5045223;28;20452;-72
2022/04/26 04:01:04;;;;;;;12.60;10.80;;;12.10;99.90;;;;;;5029917;28;20260;-73
2022/04/26 04:03:30;;;;;;;12.07;10.70;;;12.10;99.90;;;;;;5026798;28;20616;-71
2022/04/26 04:05:55;;;;;;;12.40;11.10;;;12.10;99.90;;;;;;5032394;28;20434;-73
2022/04/26 04:08:21;;;;;;;15.33;12.93;;;11.90;99.90;;;;;;5029264;28;20183;-73
2022/04/26 04:10:46;;;;;;;15.50;12.70;;;11.90;99.90;;;;;;5032651;28;20955;-73
2022/04/26 04:13:13;;;;;;;14.70;13.13;;;11.80;99.90;;;;;;5028704;28;20234;-73
2022/04/26 04:15:39;;;;;;;14.60;12.47;;;11.70;99.90;;;;;;5027907;28;20350;-72
2022/04/26 04:19:17;;;;;;;14.27;12.73;;;11.90;99.90;;;;;;5033553;28;20443;-74
2022/04/26 04:20:50;;;;;;;16.73;13.47;;;11.70;99.90;;;;;;5031726;28;20531;-72
2022/04/26 04:23:15;;;;;;;15.10;13.03;;;11.70;99.90;;;;;;5030163;28;20458;-75
2022/04/26 04:25:41;;;;;;;14.37;12.63;;;11.80;99.90;;;;;;5031851;28;20179;-72
2022/04/26 04:28:07;;;;;;;15.97;13.43;;;11.70;99.90;;;;;;5030092;28;20246;-72
2022/04/26 04:30:32;;;;;;;15.43;13.00;;;11.60;99.90;;;;;;5031899;28;20192;-72
2022/04/26 04:32:58;;;;;;;16.73;14.50;;;11.80;99.90;;;;;;5034248;28;20234;-72
2022/04/26 04:35:23;;;;;;;18.40;13.83;;;11.80;99.90;;;;;;5031360;28;20210;-72
2022/04/26 04:37:49;;;;;;;16.10;13.00;;;11.90;99.90;;;;;;5031740;28;20196;-73
2022/04/26 04:40:15;;;;;;;15.47;13.80;;;11.90;99.90;;;;;;5031461;28;20550;-74
2022/04/26 04:42:40;;;;;;;18.60;14.43;;;11.90;99.90;;;;;;5027107;28;20303;-72
2022/04/26 04:45:06;;;;;;;15.67;13.73;;;11.80;99.90;;;;;;5031803;28;20241;-72
2022/04/26 04:47:32;;;;;;;19.27;16.40;;;11.80;99.90;;;;;;5029083;28;20207;-73
2022/04/26 04:49:57;;;;;;;18.53;14.80;;;11.90;99.90;;;;;;5026212;28;20925;-73
2022/04/26 04:52:23;;;;;;;16.53;14.17;;;12.00;99.90;;;;;;5029290;28;20212;-72
2022/04/26 04:54:49;;;;;;;17.00;13.80;;;12.00;99.90;;;;;;5028035;28;20195;-72
2022/04/26 04:57:14;;;;;;;17.23;14.60;;;12.00;99.90;;;;;;5045470;28;20245;-74
2022/04/26 04:59:40;;;;;;;17.73;15.83;;;12.00;99.90;;;;;;5027246;28;20246;-74
2022/04/26 05:02:06;;;;;;;16.93;14.70;;;12.00;99.90;;;;;;5028287;28;20921;-72
2022/04/26 05:04:31;;;;;;;18.47;14.57;;;12.00;99.90;;;;;;5025573;28;20277;-75
2022/04/26 05:06:57;;;;;;;15.80;14.10;;;12.00;99.90;;;;;;5032125;28;20555;-72
2022/04/26 05:09:22;;;;;;;17.17;15.37;;;12.00;99.90;;;;;;5028013;28;20528;-72
2022/04/26 05:11:48;;;;;;;19.57;16.47;;;11.90;99.90;;;;;;5027064;28;20310;-72
2022/04/26 05:14:14;;;;;;;19.30;15.00;;;11.90;99.90;;;;;;5029193;28;20188;-74
2022/04/26 05:16:39;;;;;;;21.47;17.50;;;11.80;99.90;;;;;;5030181;28;20679;-72
2022/04/26 05:19:05;;;;;;;16.80;14.10;;;11.80;99.90;;;;;;5030387;28;20666;-72
2022/04/26 05:21:30;;;;;;;18.10;15.10;;;11.80;99.90;;;;;;5031213;28;20298;-72
2022/04/26 05:26:40;;;;;;;17.27;15.07;;;11.80;99.90;;;;;;5035208;28;20244;-72
2022/04/26 05:29:06;;;;;;;18.20;16.20;;;11.80;99.90;;;;;;5034555;28;20438;-71
2022/04/26 05:31:32;;;;;;;23.30;17.63;;;11.90;99.90;;;;;;5030992;28;20262;-72
2022/04/26 05:33:57;;;;;;;22.50;17.80;;;11.70;99.90;;;;;;5032265;28;20326;-72
2022/04/26 05:36:23;;;;;;;24.37;19.37;;;11.60;99.90;;;;;;5032234;28;20480;-72
2022/04/26 05:38:48;;;;;;;22.90;18.70;;;11.40;99.90;;;;;;5033472;28;20233;-72
2022/04/26 05:41:14;;;;;;;25.67;19.97;;;11.50;99.90;;;;;;5030084;28;20196;-72
2022/04/26 05:43:40;;;;;;;23.77;18.77;;;11.40;99.90;;;;;;5025866;28;20192;-72
2022/04/26 05:46:10;;;;;;;25.20;20.23;;;11.40;99.90;;;;;;5029571;28;20175;-72
2022/04/26 05:48:36;;;;;;;24.53;20.27;;;11.30;99.90;;;;;;5031213;28;20204;-72
2022/04/26 05:51:01;;;;;;;25.13;20.23;;;11.20;99.90;;;;;;5036511;28;21002;-73
2022/04/26 05:53:27;;;;;;;26.57;21.63;;;11.20;99.90;;;;;;5029944;28;20193;-73
2022/04/26 05:55:52;;;;;;;25.47;19.73;;;11.20;99.90;;;;;;5034242;28;21204;-72
2022/04/26 05:58:18;;;;;;;27.50;20.70;;;11.20;99.90;;;;;;5031337;28;20190;-74
2022/04/26 06:00:43;;;;;;;28.87;20.73;;;11.30;99.90;;;;;;5026537;28;20207;-73
2022/04/26 06:03:09;;;;;;;23.47;18.73;;;11.40;99.90;;;;;;5034159;28;20273;-74
2022/04/26 06:05:35;;;;;;;25.03;18.70;;;11.50;99.90;;;;;;5031545;28;20680;-74
2022/04/26 06:08:00;;;;;;;24.23;20.13;;;11.60;99.90;;;;;;5032458;28;20226;-74
2022/04/26 06:10:27;;;;;;;26.67;20.37;;;11.60;99.90;;;;;;5028281;28;20216;-73
2022/04/26 06:12:53;;;;;;;23.63;19.90;;;11.50;99.90;;;;;;5046469;28;20785;-74
2022/04/26 06:15:18;;;;;;;22.97;19.00;;;11.60;99.90;;;;;;5033015;28;20430;-73
2022/04/26 06:17:44;;;;;;;27.40;20.60;;;11.50;99.90;;;;;;5033321;28;20246;-74
2022/04/26 06:20:11;;;;;;;27.47;21.07;;;11.40;99.90;;;;;;5028977;28;20187;-72
2022/04/26 06:22:36;;;;;;;24.60;20.70;;;11.30;99.90;;;;;;5033665;28;20218;-74
2022/04/26 06:25:02;;;;;;;22.07;19.13;;;11.30;99.90;;;;;;5029722;28;20430;-74
2022/04/26 06:27:28;;;;;;;24.13;18.87;;;11.40;99.90;;;;;;5032373;28;20181;-72
2022/04/26 06:29:53;;;;;;;22.60;17.63;;;11.50;99.90;;;;;;5033121;28;20175;-72
2022/04/26 06:32:19;;;;;;;25.33;18.77;;;11.50;99.90;;;;;;5034075;28;20244;-74
2022/04/26 06:34:45;;;;;;;20.63;17.47;;;11.40;99.90;;;;;;5031728;28;20527;-74
2022/04/26 06:37:13;;;;;;;24.53;17.30;;;11.40;99.90;;;;;;5028505;28;20198;-72
2022/04/26 06:39:39;;;;;;;21.70;17.70;;;11.50;99.90;;;;;;5034535;28;20172;-72
2022/04/26 06:42:04;;;;;;;23.27;17.20;;;11.50;99.90;;;;;;5029037;28;20532;-72
2022/04/26 06:44:31;;;;;;;18.93;16.80;;;11.40;99.90;;;;;;5030604;28;21550;-72
2022/04/26 06:46:56;;;;;;;20.30;16.77;;;11.50;99.90;;;;;;5032959;28;20180;-73
2022/04/26 06:49:22;;;;;;;23.00;17.87;;;11.40;99.90;;;;;;5034038;28;20519;-72
2022/04/26 06:51:48;;;;;;;22.97;17.63;;;11.40;99.90;;;;;;5033068;28;20283;-74
2022/04/26 06:54:13;;;;;;;24.43;18.87;;;11.50;99.90;;;;;;5029884;28;20180;-71
2022/04/26 06:56:45;;;;;;;21.87;17.80;;;11.50;99.90;;;;;;5032687;28;20648;-72
2022/04/26 06:59:11;;;;;;;18.67;15.37;;;11.60;99.90;;;;;;5030779;28;20631;-72
2022/04/26 07:01:38;;;;;;;18.00;15.47;;;11.70;99.90;;;;;;5030331;28;20497;-72
2022/04/26 07:04:04;;;;;;;20.00;15.77;;;11.60;99.90;;;;;;5034151;28;20434;-71
2022/04/26 07:06:29;;;;;;;18.33;16.10;;;11.80;99.90;;;;;;5036026;28;20437;-73
2022/04/26 07:08:56;;;;;;;22.30;17.67;;;11.70;99.90;;;;;;5032629;28;20176;-74
2022/04/26 07:11:21;;;;;;;19.73;15.10;;;11.80;99.90;;;;;;5030763;28;20563;-73
2022/04/26 07:13:48;;;;;;;21.43;16.57;;;11.90;99.90;;;;;;5035566;28;20454;-74
2022/04/26 07:16:14;;;;;;;19.60;16.50;;;11.80;99.90;;;;;;5027591;28;20891;-73
2022/04/26 07:18:40;;;;;;;23.93;16.50;;;11.90;99.90;;;;;;5028977;28;20442;-72
2022/04/26 07:21:05;;;;;;;17.13;15.07;;;12.10;99.90;;;;;;5032523;28;20204;-73
2022/04/26 07:23:31;;;;;;;19.87;14.83;;;12.20;99.90;;;;;;5031561;28;20214;-73
2022/04/26 07:25:57;;;;;;;19.20;14.50;;;12.20;99.90;;;;;;5029642;28;20181;-74
2022/04/26 07:28:23;;;;;;;16.93;14.57;;;12.20;99.90;;;;;;5031129;28;20537;-74
2022/04/26 07:30:49;;;;;;;18.23;15.00;;;12.20;99.90;;;;;;5030210;28;20450;-72
2022/04/26 07:36:03;;;;;;;18.10;14.93;;;12.20;99.90;;;;;;5027348;28;20445;-74
2022/04/26 07:38:28;;;;;;;17.80;14.10;;;12.20;99.90;;;;;;5029980;28;20517;-71
2022/04/26 07:40:54;;;;;;;17.90;15.63;;;12.20;99.90;;;;;;5030058;28;20883;-72
2022/04/26 07:43:21;;;;;;;18.47;15.40;;;12.20;99.90;;;;;;5027712;28;20200;-74
2022/04/26 07:45:46;;;;;;;17.20;14.77;;;12.20;99.90;;;;;;5032648;28;20176;-73
2022/04/26 07:48:16;;;;;;;17.10;15.30;;;12.30;99.90;;;;;;5046771;28;20441;-72
2022/04/26 07:50:44;;;;;;;19.60;14.60;;;12.40;99.90;;;;;;5026114;28;20184;-74
2022/04/26 07:53:10;;;;;;;16.73;14.80;;;12.40;99.90;;;;;;5029006;28;20451;-72
2022/04/26 07:55:38;;;;;;;17.23;14.43;;;12.50;99.90;;;;;;5031124;28;20437;-72
2022/04/26 07:58:04;;;;;;;17.87;13.47;;;12.50;99.90;;;;;;5032327;28;20430;-72
2022/04/26 08:00:30;;;;;;;17.17;15.03;;;12.60;99.90;;;;;;5039157;28;20852;-71
2022/04/26 08:02:56;;;;;;;16.73;13.87;;;12.60;99.90;;;;;;5025824;28;20220;-71
2022/04/26 08:05:22;;;;;;;22.57;14.70;;;12.60;99.90;;;;;;5028674;28;20512;-71
2022/04/26 08:07:49;;;;;;;16.07;13.73;;;12.60;99.90;;;;;;5030687;28;20774;-71
2022/04/26 08:10:15;;;;;;;17.77;12.53;;;12.60;99.90;;;;;;5028112;28;20442;-74
2022/04/26 08:12:42;;;;;;;15.40;13.23;;;12.70;99.90;;;;;;5026968;28;20443;-71
2022/04/26 08:15:10;;;;;;;13.30;11.70;;;12.80;99.90;;;;;;5031312;28;20563;-73
2022/04/26 08:17:36;;;;;;;13.63;12.23;;;12.70;99.90;;;;;;5030094;28;20433;-73
2022/04/26 08:20:02;;;;;;;23.53;17.00;;;12.70;99.90;;;;;;5029406;28;20442;-73
2022/04/26 08:22:29;;;;;;;14.40;11.80;;;12.80;99.90;;;;;;5029536;28;20212;-74
2022/04/26 08:27:39;;;;;;;14.27;12.47;;;12.70;99.90;;;;;;5031029;28;20437;-72
2022/04/26 08:30:05;;;;;;;17.17;12.00;;;12.70;99.90;;;;;;5033198;28;20427;-73
2022/04/26 08:32:45;;;;;;;14.30;12.07;;;12.80;99.90;;;;;;5029271;28;20281;-73
2022/04/26 08:35:24;;;;;;;13.93;12.47;;;12.90;99.90;;;;;;5033481;28;20442;-72
2022/04/26 08:37:50;;;;;;;15.80;11.80;;;13.00;99.90;;;;;;5025296;28;21065;-74
2022/04/26 08:40:16;;;;;;;16.60;12.10;;;13.10;99.90;;;;;;5026810;28;20469;-73
2022/04/26 08:42:44;;;;;;;12.87;11.03;;;13.30;99.90;;;;;;5029754;28;20565;-72
2022/04/26 08:45:11;;;;;;;12.93;11.57;;;13.40;99.90;;;;;;5025778;28;20460;-72
2022/04/26 08:53:10;;;;;;;14.83;11.00;;;13.50;99.90;;;;;;5033542;28;20535;-73
2022/04/26 08:55:43;;;;;;;13.63;11.13;;;13.60;99.90;;;;;;5033813;28;20442;-73
2022/04/26 08:58:13;;;;;;;10.60;8.97;;;13.50;99.90;;;;;;5035662;28;20437;-73
2022/04/26 09:01:09;;;;;;;11.50;9.30;;;13.60;99.90;;;;;;5035948;28;20453;-73
2022/04/26 09:03:54;;;;;;;10.53;9.37;;;13.70;99.90;;;;;;5038377;28;20456;-73
2022/04/26 09:06:40;;;;;;;11.60;10.37;;;13.70;99.90;;;;;;5035757;28;20427;-73
2022/04/26 09:09:09;;;;;;;13.63;10.40;;;13.70;99.90;;;;;;5034637;28;20435;-73
2022/04/26 09:11:36;;;;;;;18.50;13.23;;;13.60;99.90;;;;;;5041446;28;20489;-71
2022/04/26 09:14:04;;;;;;;13.53;11.40;;;13.60;99.90;;;;;;5029153;28;20446;-73
2022/04/26 09:16:30;;;;;;;12.27;10.80;;;13.40;99.90;;;;;;5047717;28;20517;-73
2022/04/26 09:19:06;;;;;;;14.33;10.70;;;13.40;99.90;;;;;;5033813;28;20517;-72
2022/04/26 09:21:33;;;;;;;15.50;10.50;;;13.10;99.90;;;;;;5034176;28;20279;-73
2022/04/26 09:24:05;;;;;;;13.73;11.47;;;13.00;99.90;;;;;;5030823;28;20437;-71
2022/04/26 09:26:39;;;;;;;16.63;11.47;;;13.00;99.90;;;;;;5037114;28;20418;-72
2022/04/26 09:29:06;;;;;;;15.37;12.33;;;12.90;99.90;;;;;;5029822;28;20507;-73
2022/04/26 09:31:40;;;;;;;14.70;12.43;;;13.00;99.90;;;;;;5034332;28;21170;-73
2022/04/26 09:34:14;;;;;;;14.00;12.47;;;13.00;99.90;;;;;;5034560;28;20434;-73
2022/04/26 09:36:48;;;;;;;13.90;10.03;;;13.00;99.90;;;;;;5037599;28;20483;-74
2022/04/26 09:39:21;;;;;;;10.47;8.90;;;13.10;99.90;;;;;;5032243;28;20445;-72
2022/04/26 09:41:51;;;;;;;10.10;9.10;;;13.10;99.90;;;;;;5031230;28;20474;-73
2022/04/26 09:44:30;;;;;;;10.43;7.13;;;12.90;99.90;;;;;;5029938;28;20449;-72
2022/04/26 09:46:56;;;;;;;7.70;6.90;;;12.80;99.90;;;;;;5034133;28;20434;-73
2022/04/26 09:49:23;;;;;;;8.13;6.13;;;12.80;99.90;;;;;;5035102;28;20803;-71
2022/04/26 09:51:54;;;;;;;6.30;5.70;;;13.00;99.90;;;;;;5033455;28;20660;-73
2022/04/26 09:54:23;;;;;;;6.50;5.80;;;13.00;99.90;;;;;;5030681;28;20496;-72
2022/04/26 09:56:50;;;;;;;6.93;6.20;;;13.20;99.90;;;;;;5032477;28;20457;-72
2022/04/26 09:59:29;;;;;;;6.90;6.17;;;13.30;99.90;;;;;;5030840;28;20512;-73
2022/04/26 10:01:57;;;;;;;6.03;5.43;;;13.20;99.90;;;;;;5028604;28;20469;-72
2022/04/26 10:04:24;;;;;;;9.30;6.60;;;13.10;99.90;;;;;;5032809;28;21124;-71
2022/04/26 10:06:56;;;;;;;6.87;6.17;;;13.10;99.90;;;;;;5033905;28;20804;-73
2022/04/26 10:09:23;;;;;;;9.57;7.20;;;13.50;99.90;;;;;;5050974;28;20431;-72
2022/04/26 10:11:54;;;;;;;7.83;6.93;;;13.90;99.90;;;;;;5029349;28;21083;-72
2022/04/26 10:14:20;;;;;;;7.80;6.60;;;14.00;99.90;;;;;;5031609;28;21439;-72
2022/04/26 10:16:46;;;;;;;8.77;7.20;;;14.10;99.90;;;;;;5035866;28;20442;-72
2022/04/26 10:19:12;;;;;;;13.10;9.20;;;14.40;99.90;;;;;;5032505;28;21012;-71
2022/04/26 10:21:38;;;;;;;9.33;8.33;;;14.20;99.90;;;;;;5036319;28;20501;-71
2022/04/26 10:24:16;;;;;;;12.00;9.57;;;14.20;99.90;;;;;;5030790;28;20467;-71
2022/04/26 10:26:42;;;;;;;12.03;10.40;;;14.30;99.90;;;;;;5050815;28;20175;-70
2022/04/26 10:29:07;;;;;;;12.80;11.13;;;14.10;99.90;;;;;;5030868;28;20429;-71
2022/04/26 10:31:56;;;;;;;13.73;12.23;;;14.40;99.90;;;;;;5030633;28;21850;-73
2022/04/26 10:34:24;;;;;;;16.60;14.57;;;14.60;99.90;;;;;;5048419;28;20176;-73
2022/04/26 10:36:51;;;;;;;13.70;11.63;;;14.80;99.90;;;;;;5036629;28;20441;-71
2022/04/26 10:39:32;;;;;;;14.00;12.60;;;14.70;99.90;;;;;;5033071;28;20620;-71
2022/04/26 10:41:59;;;;;;;13.33;11.93;;;14.80;99.90;;;;;;5028970;28;20471;-71
2022/04/26 10:44:27;;;;;;;14.73;11.57;;;14.80;99.90;;;;;;5034819;28;20569;-73
2022/04/26 10:46:56;;;;;;;16.37;13.37;;;14.60;99.90;;;;;;5033118;28;20439;-76
2022/04/26 10:49:28;;;;;;;19.60;14.23;;;14.40;99.90;;;;;;5049667;28;20442;-75
2022/04/26 10:51:57;;;;;;;13.20;11.60;;;13.70;99.90;;;;;;5033722;28;20460;-73
2022/04/26 10:55:03;;;;;;;15.17;11.73;;;12.70;99.90;;;;;;5034547;28;20435;-75
2022/04/26 10:57:30;;;;;;;17.90;12.50;;;11.90;99.90;;;;;;5034269;28;21937;-74
2022/04/26 10:59:57;;;;;;;17.90;12.20;;;11.50;99.90;;;;;;5032875;28;20458;-76
2022/04/26 11:02:25;;;;;;;21.60;13.07;;;11.30;99.90;;;;;;5034300;28;20476;-74
2022/04/26 11:04:59;;;;;;;16.20;11.57;;;11.30;99.90;;;;;;5031711;28;20440;-74
2022/04/26 11:07:26;;;;;;;16.30;12.53;;;11.40;99.90;;;;;;5038669;28;20460;-74
2022/04/26 11:09:54;;;;;;;17.37;11.57;;;11.40;99.90;;;;;;5034039;28;20426;-73
2022/04/26 11:12:33;;;;;;;14.13;10.30;;;11.40;99.90;;;;;;5032239;28;20468;-69
2022/04/26 11:15:07;;;;;;;13.03;10.93;;;11.60;99.90;;;;;;5033073;28;20433;-72
2022/04/26 11:17:34;;;;;;;15.40;10.93;;;11.60;99.90;;;;;;5033090;28;20430;-74
2022/04/26 11:20:03;;;;;;;13.70;10.53;;;11.60;99.90;;;;;;5034646;28;20525;-74
2022/04/26 11:22:30;;;;;;;11.23;10.00;;;11.70;99.90;;;;;;5032507;28;21248;-73
2022/04/26 11:28:00;;;;;;;11.97;10.03;;;12.20;99.90;;;;;;5034675;28;20480;-72
2022/04/26 11:30:32;;;;;;;11.83;10.63;;;12.40;99.90;;;;;;5037504;28;20434;-73
2022/04/26 11:33:00;;;;;;;10.07;7.57;;;12.60;99.90;;;;;;5034180;28;20466;-72
2022/04/26 11:35:26;;;;;;;10.13;6.77;;;12.70;99.90;;;;;;5035910;28;20433;-72
2022/04/26 11:37:54;;;;;;;10.17;6.57;;;12.80;99.90;;;;;;5033819;28;20932;-73
2022/04/26 11:40:28;;;;;;;9.97;6.00;;;13.10;99.90;;;;;;5029905;28;20427;-73
2022/04/26 11:42:57;;;;;;;8.60;6.53;;;13.50;99.90;;;;;;5032418;28;20476;-73
2022/04/26 11:45:28;;;;;;;6.57;5.67;;;13.70;99.90;;;;;;5036348;28;20421;-76
2022/04/26 11:47:54;;;;;;;7.27;5.40;;;13.80;99.90;;;;;;5032695;28;20419;-72
2022/04/26 11:50:30;;;;;;;6.63;5.60;;;14.20;99.90;;;;;;5049053;28;20438;-72
2022/04/26 11:53:03;;;;;;;5.47;4.53;;;14.40;99.90;;;;;;5036422;28;20442;-72
2022/04/26 11:55:37;;;;;;;4.70;4.17;;;14.70;99.90;;;;;;5036704;28;20430;-71
2022/04/26 11:58:07;;;;;;;8.63;5.20;;;15.10;99.90;;;;;;5029056;28;21254;-72
2022/04/26 12:00:33;;;;;;;5.63;4.27;;;15.30;99.90;;;;;;5032331;28;20456;-72
2022/04/26 12:03:00;;;;;;;4.03;3.63;;;15.80;99.90;;;;;;5034444;28;20465;-73
2022/04/26 12:05:26;;;;;;;5.17;4.60;;;16.10;99.90;;;;;;5037434;28;20180;-72
2022/04/26 12:07:52;;;;;;;7.03;4.13;;;16.20;99.90;;;;;;5048111;28;20453;-72
2022/04/26 12:10:26;;;;;;;4.20;3.50;;;16.40;99.90;;;;;;5049667;28;20234;-71
2022/04/26 12:12:56;;;;;;;4.33;3.93;;;16.60;99.90;;;;;;5032472;28;20541;-72
2022/04/26 12:15:40;;;;;;;4.43;3.70;;;16.90;99.90;;;;;;5032884;28;20438;-72
2022/04/26 12:18:07;;;;;;;4.13;3.73;;;17.10;99.90;;;;;;5025577;28;20512;-72
2022/04/26 12:20:36;;;;;;;4.37;3.97;;;17.50;99.90;;;;;;5023968;28;20971;-72
2022/04/26 12:23:04;;;;;;;6.23;4.10;;;16.30;99.90;;;;;;5028201;28;21734;-71
2022/04/26 12:25:30;;;;;;;4.63;3.60;;;16.30;99.90;;;;;;5028838;28;20442;-73
2022/04/26 12:28:07;;;;;;;7.43;4.10;;;16.10;99.90;;;;;;5028011;28;20449;-73
2022/04/26 12:30:34;;;;;;;4.20;3.77;;;16.30;99.90;;;;;;5029477;28;20553;-72
2022/04/26 12:33:00;;;;;;;4.20;3.57;;;16.50;99.90;;;;;;5034015;28;20498;-73
2022/04/26 12:35:26;;;;;;;4.80;3.90;;;16.70;99.90;;;;;;5034585;28;20469;-71
2022/04/26 12:38:06;;;;;;;4.90;3.67;;;16.60;99.90;;;;;;5028046;28;20492;-71
2022/04/26 12:40:32;;;;;;;4.60;4.00;;;16.10;99.90;;;;;;5025496;28;20527;-73
2022/04/26 12:42:58;;;;;;;7.90;3.97;;;15.90;99.90;;;;;;5030514;28;20477;-71
2022/04/26 12:45:25;;;;;;;4.93;3.90;;;15.70;99.90;;;;;;5045348;28;20447;-72
2022/04/26 12:50:53;;;;;;;3.97;3.57;;;15.90;99.90;;;;;;5030764;28;20546;-72
2022/04/26 12:53:28;;;;;;;4.63;4.23;;;16.40;99.90;;;;;;5032259;28;22289;-72
2022/04/26 12:56:05;;;;;;;6.10;5.00;;;16.90;99.90;;;;;;5031916;28;20445;-71
2022/04/26 12:58:38;;;;;;;5.63;5.00;;;17.20;99.90;;;;;;5033936;28;20441;-72
2022/04/26 13:01:05;;;;;;;5.00;4.50;;;17.60;99.90;;;;;;5032588;28;20501;-72
2022/04/26 13:03:31;;;;;;;4.83;4.43;;;17.60;99.90;;;;;;5033797;28;21330;-72
2022/04/26 13:06:10;;;;;;;5.87;5.37;;;17.40;99.90;;;;;;5034725;28;20495;-72
2022/04/26 13:08:37;;;;;;;6.30;4.57;;;18.10;99.90;;;;;;5027829;28;21292;-72
2022/04/26 13:11:04;;;;;;;5.07;4.47;;;18.40;99.90;;;;;;5031086;28;20456;-72
2022/04/26 13:13:31;;;;;;;5.53;5.03;;;19.20;99.90;;;;;;5029216;28;20500;-73
2022/04/26 13:15:57;;;;;;;5.70;5.10;;;20.10;99.90;;;;;;5033344;28;20438;-73
2022/04/26 13:18:23;;;;;;;5.40;4.90;;;19.50;99.90;;;;;;5034330;28;20947;-72
2022/04/26 13:20:48;;;;;;;5.40;4.90;;;19.50;99.90;;;;;;5034650;28;20561;-72
2022/04/26 13:23:16;;;;;;;6.10;5.40;;;18.60;99.90;;;;;;5037484;28;20214;-72
2022/04/26 13:25:42;;;;;;;4.77;4.30;;;18.60;99.90;;;;;;5032569;28;20181;-73
2022/04/26 13:28:08;;;;;;;4.90;4.30;;;18.30;99.90;;;;;;5033252;28;20443;-72
2022/04/26 13:30:34;;;;;;;6.43;4.43;;;17.90;99.90;;;;;;5031720;28;20450;-73
2022/04/26 13:33:00;;;;;;;4.77;4.00;;;18.10;99.90;;;;;;5035407;28;20466;-72
2022/04/26 13:35:26;;;;;;;3.90;3.60;;;18.20;99.90;;;;;;5033549;28;20442;-73
2022/04/26 13:37:52;;;;;;;5.03;3.43;;;17.80;99.90;;;;;;5052772;28;20791;-74
2022/04/26 13:40:22;;;;;;;5.40;3.33;;;17.80;99.90;;;;;;5036765;28;20665;-73
2022/04/26 13:42:48;;;;;;;4.20;3.80;;;17.10;99.90;;;;;;5035965;28;20470;-71
2022/04/26 13:45:14;;;;;;;6.80;4.23;;;16.10;99.90;;;;;;5037346;28;20439;-72
2022/04/26 13:47:40;;;;;;;7.47;5.23;;;15.90;99.90;;;;;;5038936;28;20422;-71
2022/04/26 13:50:07;;;;;;;6.90;4.77;;;14.70;99.90;;;;;;5038020;28;20437;-74
2022/04/26 13:52:34;;;;;;;5.00;3.90;;;13.70;99.90;;;;;;5035328;28;20499;-73
2022/04/26 13:55:00;;;;;;;4.20;3.80;;;12.90;99.90;;;;;;5035505;28;20478;-73
2022/04/26 13:57:25;;;;;;;6.03;4.00;;;12.60;99.90;;;;;;5035887;28;20483;-74
2022/04/26 13:59:52;;;;;;;4.50;3.80;;;12.30;99.90;;;;;;5038437;28;20457;-73
2022/04/26 14:02:19;;;;;;;4.00;3.57;;;12.30;99.90;;;;;;5032616;28;20211;-72
2022/04/26 14:04:47;;;;;;;4.07;3.17;;;12.40;99.90;;;;;;5035743;28;20435;-72
2022/04/26 14:07:12;;;;;;;4.37;3.83;;;12.30;99.90;;;;;;5039023;28;20440;-73
2022/04/26 14:09:38;;;;;;;5.30;3.80;;;12.40;99.90;;;;;;5036386;28;20794;-72
2022/04/26 14:12:05;;;;;;;6.40;4.53;;;12.50;99.90;;;;;;5035195;28;20677;-73
2022/04/26 14:22:43;;;;;;;5.70;4.50;;;12.90;99.90;;;;;;5037220;28;20538;-73
2022/04/26 14:25:11;;;;;;;6.27;4.20;;;12.70;99.90;;;;;;5036453;28;20817;-72
2022/04/26 14:27:38;;;;;;;5.10;4.60;;;12.70;99.90;;;;;;5033678;28;20199;-73
2022/04/26 14:30:06;;;;;;;5.07;4.20;;;12.70;99.90;;;;;;5033725;28;20438;-73
2022/04/26 14:32:32;;;;;;;5.00;4.40;;;12.80;99.90;;;;;;5034009;28;20508;-74
2022/04/26 14:34:57;;;;;;;5.57;4.57;;;12.90;99.90;;;;;;5037982;28;20564;-73
2022/04/26 14:37:23;;;;;;;5.27;4.20;;;13.00;99.90;;;;;;5034802;28;20185;-72
2022/04/26 14:39:50;;;;;;;5.50;4.80;;;13.00;99.90;;;;;;5036695;28;20599;-74
2022/04/26 14:42:17;;;;;;;6.20;5.20;;;13.20;99.90;;;;;;5039284;28;20208;-73
2022/04/26 14:44:43;;;;;;;5.23;4.53;;;13.50;99.90;;;;;;5038099;28;20575;-74
2022/04/26 14:47:09;;;;;;;5.10;4.40;;;13.90;99.90;;;;;;5041259;28;21139;-73
2022/04/26 14:49:35;;;;;;;6.27;5.10;;;14.30;99.90;;;;;;5033344;28;20191;-74
2022/04/26 14:52:01;;;;;;;5.53;4.87;;;14.30;99.90;;;;;;5036203;28;20450;-73
2022/04/26 14:54:28;;;;;;;6.53;4.63;;;14.20;99.90;;;;;;5036241;28;20426;-73
2022/04/26 14:56:54;;;;;;;5.93;5.30;;;14.50;99.90;;;;;;5037482;28;20434;-74
2022/04/26 14:59:22;;;;;;;8.70;4.60;;;14.40;99.90;;;;;;5034031;28;20480;-73
2022/04/26 15:01:49;;;;;;;5.33;4.80;;;14.40;99.90;;;;;;5034575;28;20990;-73
2022/04/26 15:04:19;;;;;;;5.10;4.50;;;14.50;99.90;;;;;;5038769;28;20440;-73
2022/04/26 15:06:45;;;;;;;7.03;4.87;;;14.70;99.90;;;;;;5036718;28;21009;-72
2022/04/26 15:17:25;;;;;;;5.43;4.37;;;16.00;99.90;;;;;;5037997;28;20518;-75
2022/04/26 15:19:51;;;;;;;5.10;4.60;;;16.50;99.90;;;;;;5032278;28;21166;-73
2022/04/26 15:22:19;;;;;;;4.37;3.97;;;16.70;99.90;;;;;;5034879;28;20465;-74
2022/04/26 15:24:46;;;;;;;6.43;4.50;;;16.90;99.90;;;;;;5035567;28;20426;-74
2022/04/26 15:27:13;;;;;;;5.77;4.80;;;17.20;99.90;;;;;;5049297;28;20481;-74
2022/04/26 15:29:38;;;;;;;4.87;3.90;;;17.40;99.90;;;;;;5033527;28;20430;-74
2022/04/26 15:32:05;;;;;;;4.30;3.63;;;17.50;99.90;;;;;;5033357;28;20453;-74
2022/04/26 15:34:30;;;;;;;3.83;3.30;;;17.60;99.90;;;;;;5037432;28;20188;-74
2022/04/26 15:36:56;;;;;;;3.70;3.03;;;17.80;99.90;;;;;;5033104;28;20446;-73
2022/04/26 15:39:22;;;;;;;3.10;2.70;;;17.80;99.90;;;;;;5031808;28;20234;-74
2022/04/26 15:41:48;;;;;;;4.43;3.33;;;17.30;99.90;;;;;;5036221;28;20265;-73
2022/04/26 15:44:15;;;;;;;3.70;3.33;;;17.20;99.90;;;;;;5034757;28;20434;-73
2022/04/26 15:46:41;;;;;;;6.00;4.20;;;17.20;99.90;;;;;;5037073;28;20183;-76
2022/04/26 15:49:06;;;;;;;2.80;2.50;;;16.90;99.90;;;;;;5032535;28;20917;-76
2022/04/26 15:51:33;;;;;;;2.97;2.67;;;17.00;99.90;;;;;;5035316;28;20450;-76
2022/04/26 15:54:01;;;;;;;4.10;3.27;;;16.80;99.90;;;;;;5033520;28;20282;-74
2022/04/26 15:56:27;;;;;;;4.23;3.30;;;16.70;99.90;;;;;;5034548;28;20837;-74
2022/04/26 15:58:56;;;;;;;4.50;3.27;;;16.30;99.90;;;;;;5036651;28;20526;-73
2022/04/26 16:01:25;;;;;;;4.87;3.10;;;16.00;99.90;;;;;;5032970;28;20224;-74
2022/04/26 16:03:51;;;;;;;3.43;3.10;;;16.10;99.90;;;;;;5029717;28;20442;-75
2022/04/26 16:06:16;;;;;;;3.77;3.37;;;16.10;99.90;;;;;;5036289;28;21213;-76
2022/04/26 16:08:42;;;;;;;3.97;2.90;;;16.00;99.90;;;;;;5034480;28;20218;-75
2022/04/26 16:22:16;;;;;;;3.83;3.30;;;15.20;99.90;;;;;;5035653;28;20547;-76
2022/04/26 16:24:41;;;;;;;3.67;3.17;;;15.20;99.90;;;;;;5034187;28;20434;-76
2022/04/26 16:27:08;;;;;;;3.50;3.00;;;14.80;99.90;;;;;;5035546;28;20531;-76
2022/04/26 16:29:34;;;;;;;3.40;3.10;;;14.50;99.90;;;;;;5032103;28;20211;-76
2022/04/26 16:32:01;;;;;;;3.63;3.07;;;14.50;99.90;;;;;;5032753;28;20463;-76
2022/04/26 16:34:27;;;;;;;3.20;2.90;;;14.40;99.90;;;;;;5034348;28;21172;-77
2022/04/26 16:36:53;;;;;;;3.60;3.30;;;14.30;99.90;;;;;;5031928;28;20816;-76
2022/04/26 16:39:19;;;;;;;3.77;3.10;;;14.40;99.90;;;;;;5031384;28;20462;-76
2022/04/26 16:41:45;;;;;;;3.60;3.17;;;14.40;99.90;;;;;;5033549;28;21006;-76
2022/04/26 16:44:10;;;;;;;5.57;3.90;;;14.40;99.90;;;;;;5029108;28;20217;-76
2022/04/26 16:46:37;;;;;;;3.97;3.30;;;14.20;99.90;;;;;;5033226;28;20177;-78
2022/04/26 16:49:03;;;;;;;5.17;4.23;;;13.80;99.90;;;;;;5033554;28;20562;-76
2022/04/26 16:51:30;;;;;;;5.07;3.90;;;13.50;99.90;;;;;;5031283;28;20442;-77
2022/04/26 16:53:58;;;;;;;6.33;4.33;;;13.20;99.90;;;;;;5033112;28;20427;-77
2022/04/26 16:56:27;;;;;;;6.03;4.50;;;13.10;99.90;;;;;;5032997;28;20455;-77
2022/04/26 16:58:52;;;;;;;7.97;5.00;;;12.90;99.90;;;;;;5034440;28;20439;-77
2022/04/26 17:01:18;;;;;;;5.03;4.30;;;12.70;99.90;;;;;;5033798;28;21127;-77